createdAt,value
2017-07-14T00:00:23.728Z,83.61
2017-07-14T00:01:24.990Z,83.99
2017-07-14T00:02:26.282Z,83.99
2017-07-14T00:03:27.554Z,84.56
2017-07-14T00:04:28.778Z,85.05
2017-07-14T00:05:30.035Z,86
2017-07-14T00:06:31.270Z,86.19
2017-07-14T00:07:32.515Z,85.81
2017-07-14T00:08:33.894Z,85.81
2017-07-14T00:09:35.110Z,85.81
2017-07-14T00:10:36.366Z,86.47
2017-07-14T00:11:37.628Z,86.19
2017-07-14T00:12:38.869Z,86.29
2017-07-14T00:13:40.178Z,86.38
2017-07-14T00:14:41.412Z,86.38
2017-07-14T00:15:42.666Z,86.76
2017-07-14T00:16:43.916Z,87.53
2017-07-14T00:17:45.157Z,87.53
2017-07-14T00:18:46.408Z,87.91
2017-07-14T00:19:47.693Z,87.62
2017-07-14T00:20:48.902Z,87.39
2017-07-14T00:21:50.161Z,88.06
2017-07-14T00:22:51.510Z,87.72
2017-07-14T00:23:52.775Z,87.87
2017-07-14T00:24:54.031Z,88.34
2017-07-14T00:25:55.269Z,87.96
2017-07-14T00:26:56.527Z,87.58
2017-07-14T00:27:57.804Z,87.96
2017-07-14T00:28:59.024Z,87.96
2017-07-14T00:30:00.336Z,88.44
2017-07-14T00:31:01.604Z,88.54
2017-07-14T00:32:02.846Z,89.01
2017-07-14T00:33:04.186Z,89.2
2017-07-14T00:34:05.570Z,89.87
2017-07-14T00:35:06.828Z,90.35
2017-07-14T00:36:08.150Z,90.25
2017-07-14T00:37:09.394Z,90.21
2017-07-14T00:38:10.629Z,90.4
2017-07-14T00:39:11.888Z,90.69
2017-07-14T00:40:13.127Z,91.16
2017-07-14T00:41:14.518Z,90.97
2017-07-14T00:42:15.816Z,91.07
2017-07-14T00:43:17.035Z,91.36
2017-07-14T00:44:18.293Z,91.16
2017-07-14T00:45:19.533Z,91.93
2017-07-14T00:46:20.812Z,92.41
2017-07-14T00:47:22.073Z,93.93
2017-07-14T00:48:23.346Z,94.12
2017-07-14T00:49:24.567Z,94.41
2017-07-14T00:50:25.818Z,94.31
2017-07-14T00:51:27.059Z,94.31
2017-07-14T00:52:28.333Z,94.98
2017-07-14T00:53:29.607Z,95.17
2017-07-14T00:54:30.945Z,95.17
2017-07-14T00:55:32.193Z,95.84
2017-07-14T00:56:33.442Z,96.13
2017-07-14T00:57:34.689Z,96.32
2017-07-14T00:58:35.958Z,96.22
2017-07-14T00:59:37.240Z,96.61
2017-07-14T01:00:38.460Z,96.42
2017-07-14T01:01:39.695Z,96.61
2017-07-14T01:02:40.936Z,96.8
2017-07-14T01:03:42.191Z,97.56
2017-07-14T01:04:43.448Z,97.08
2017-07-14T01:05:44.717Z,97.66
2017-07-14T01:06:45.972Z,97.85
2017-07-14T01:07:47.238Z,97.8
2017-07-14T01:08:48.497Z,97.99
2017-07-14T01:09:49.707Z,98.18
2017-07-14T01:10:50.959Z,99.23
2017-07-14T01:11:52.210Z,99.23
2017-07-14T01:12:53.461Z,99.52
2017-07-14T01:13:54.699Z,99.99
2017-07-14T01:14:55.957Z,99.8
2017-07-14T01:15:57.182Z,99.99
2017-07-14T01:16:58.425Z,99.99
2017-07-14T01:17:59.874Z,99.99
2017-07-14T01:19:01.097Z,99.99
2017-07-14T01:20:02.360Z,99.99
2017-07-14T01:21:03.606Z,99.99
2017-07-14T01:22:04.850Z,99.99
2017-07-14T01:23:06.085Z,99.99
2017-07-14T01:24:07.355Z,99.99
2017-07-14T01:25:08.687Z,99.99
2017-07-14T01:26:10.036Z,99.99
2017-07-14T01:27:11.297Z,99.99
2017-07-14T01:28:12.534Z,99.99
2017-07-14T01:29:13.781Z,99.99
2017-07-14T01:30:15.014Z,99.99
2017-07-14T01:31:16.259Z,99.99
2017-07-14T01:32:17.588Z,99.99
2017-07-14T01:33:18.847Z,99.99
2017-07-14T01:34:20.088Z,99.99
2017-07-14T01:35:21.339Z,99.99
2017-07-14T01:36:22.605Z,99.99
2017-07-14T01:37:23.929Z,99.99
2017-07-14T01:38:25.238Z,99.99
2017-07-14T01:39:26.469Z,99.99
2017-07-14T01:40:27.704Z,99.99
2017-07-14T01:41:28.947Z,99.99
2017-07-14T01:42:30.191Z,99.99
2017-07-14T01:43:31.433Z,99.99
2017-07-14T01:44:32.677Z,99.99
2017-07-14T01:45:33.920Z,99.99
2017-07-14T01:46:35.222Z,99.99
2017-07-14T01:47:36.476Z,99.99
2017-07-14T01:48:37.713Z,99.99
2017-07-14T01:49:38.983Z,99.99
2017-07-14T01:50:40.216Z,99.99
2017-07-14T01:51:41.648Z,99.99
2017-07-14T01:52:42.900Z,99.99
2017-07-14T01:53:44.155Z,99.99
2017-07-14T01:54:45.401Z,99.99
2017-07-14T01:55:46.704Z,99.99
2017-07-14T01:56:48.009Z,99.99
2017-07-14T01:57:49.251Z,99.99
2017-07-14T01:58:50.484Z,99.99
2017-07-14T01:59:51.749Z,99.99
2017-07-14T02:00:52.978Z,99.99
2017-07-14T02:01:54.265Z,99.99
2017-07-14T02:02:55.600Z,99.99
2017-07-14T02:03:56.760Z,99.99
2017-07-14T02:04:58.100Z,99.99
2017-07-14T02:05:59.365Z,99.99
2017-07-14T02:07:00.598Z,99.99
2017-07-14T02:08:01.853Z,99.99
2017-07-14T02:09:03.116Z,99.99
2017-07-14T02:10:04.367Z,99.99
2017-07-14T02:11:05.606Z,99.99
2017-07-14T02:12:06.869Z,99.99
2017-07-14T02:13:08.122Z,99.99
2017-07-14T02:14:09.353Z,99.99
2017-07-14T02:15:10.609Z,99.99
2017-07-14T02:16:11.932Z,99.99
2017-07-14T02:17:13.171Z,99.99
2017-07-14T02:18:14.449Z,99.99
2017-07-14T02:19:15.697Z,99.99
2017-07-14T02:20:16.921Z,99.99
2017-07-14T02:21:18.170Z,99.99
2017-07-14T02:22:19.442Z,99.99
2017-07-14T02:23:20.675Z,99.99
2017-07-14T02:24:21.933Z,99.99
2017-07-14T02:25:23.189Z,99.99
2017-07-14T02:26:24.443Z,99.99
2017-07-14T02:27:25.730Z,99.99
2017-07-14T02:28:26.970Z,99.99
2017-07-14T02:29:28.248Z,99.99
2017-07-14T02:30:29.578Z,99.99
2017-07-14T02:31:30.837Z,99.76
2017-07-14T02:32:32.074Z,98.9
2017-07-14T02:33:33.323Z,98.71
2017-07-14T02:34:34.572Z,98.71
2017-07-14T02:35:35.824Z,98.71
2017-07-14T02:36:37.087Z,98.32
2017-07-14T02:37:38.324Z,98.52
2017-07-14T02:38:39.562Z,98.42
2017-07-14T02:39:40.811Z,98.13
2017-07-14T02:40:42.113Z,97.99
2017-07-14T02:41:43.383Z,98.42
2017-07-14T02:42:44.626Z,99.32
2017-07-14T02:43:45.903Z,99.32
2017-07-14T02:44:47.130Z,99.52
2017-07-14T02:45:48.425Z,99.99
2017-07-14T02:46:49.807Z,99.9
2017-07-14T02:47:50.967Z,99.99
2017-07-14T02:48:52.284Z,99.99
2017-07-14T02:49:53.530Z,99.99
2017-07-14T02:50:54.774Z,99.99
2017-07-14T02:51:56.029Z,99.99
2017-07-14T02:52:57.290Z,99.99
2017-07-14T02:53:58.571Z,99.99
2017-07-14T02:54:59.949Z,99.99
2017-07-14T02:56:01.201Z,99.99
2017-07-14T02:57:02.426Z,99.99
2017-07-14T02:58:03.680Z,99.99
2017-07-14T02:59:04.930Z,99.99
2017-07-14T03:00:06.192Z,99.99
2017-07-14T03:01:07.506Z,99.99
2017-07-14T03:02:08.751Z,99.99
2017-07-14T03:03:10.009Z,99.99
2017-07-14T03:04:11.246Z,99.99
2017-07-14T03:05:12.488Z,99.99
2017-07-14T03:06:13.796Z,99.99
2017-07-14T03:07:15.057Z,99.99
2017-07-14T03:08:16.302Z,99.99
2017-07-14T03:09:17.553Z,99.99
2017-07-14T03:10:18.814Z,99.99
2017-07-14T03:11:20.041Z,99.99
2017-07-14T03:12:21.319Z,99.99
2017-07-14T03:13:22.591Z,99.99
2017-07-14T03:14:23.828Z,99.99
2017-07-14T03:15:25.087Z,99.99
2017-07-14T03:16:26.348Z,99.99
2017-07-14T03:17:27.567Z,99.99
2017-07-14T03:18:28.836Z,99.99
2017-07-14T03:19:30.058Z,99.99
2017-07-14T03:20:31.374Z,99.99
2017-07-14T03:21:32.605Z,99.99
2017-07-14T03:22:33.866Z,99.99
2017-07-14T03:23:35.109Z,99.99
2017-07-14T03:24:36.452Z,99.99
2017-07-14T03:25:37.869Z,99.99
2017-07-14T03:26:39.088Z,99.99
2017-07-14T03:27:40.329Z,99.99
2017-07-14T03:28:41.571Z,99.99
2017-07-14T03:29:42.897Z,99.99
2017-07-14T03:30:44.196Z,99.99
2017-07-14T03:31:45.474Z,99.99
2017-07-14T03:32:46.713Z,99.99
2017-07-14T03:33:47.966Z,99.99
2017-07-14T03:34:49.214Z,99.99
2017-07-14T03:35:50.461Z,99.99
2017-07-14T03:36:51.714Z,99.99
2017-07-14T03:37:52.950Z,99.99
2017-07-14T03:38:54.252Z,99.99
2017-07-14T03:39:55.475Z,99.99
2017-07-14T03:40:56.768Z,99.99
2017-07-14T03:41:58.024Z,99.99
2017-07-14T03:42:59.306Z,99.99
2017-07-14T03:44:00.524Z,99.99
2017-07-14T03:45:01.765Z,99.99
2017-07-14T03:46:03.004Z,99.99
2017-07-14T03:47:04.249Z,99.99
2017-07-14T03:48:05.502Z,99.99
2017-07-14T03:49:06.747Z,99.99
2017-07-14T03:50:07.990Z,99.99
2017-07-14T03:51:09.241Z,99.99
2017-07-14T03:52:10.482Z,99.99
2017-07-14T03:53:11.730Z,99.99
2017-07-14T03:54:12.982Z,99.99
2017-07-14T03:55:14.225Z,99.99
2017-07-14T03:56:15.476Z,99.99
2017-07-14T03:57:16.737Z,99.99
2017-07-14T03:58:17.987Z,99.99
2017-07-14T03:59:19.230Z,99.99
2017-07-14T04:00:20.471Z,99.99
2017-07-14T04:01:21.709Z,99.99
2017-07-14T04:02:22.977Z,99.99
2017-07-14T04:03:24.248Z,99.99
2017-07-14T04:04:25.588Z,99.99
2017-07-14T04:05:26.842Z,99.99
2017-07-14T04:06:28.098Z,99.99
2017-07-14T04:07:29.338Z,99.99
2017-07-14T04:08:30.609Z,99.99
2017-07-14T04:09:31.972Z,99.99
2017-07-14T04:10:33.211Z,99.99
2017-07-14T04:11:34.463Z,99.99
2017-07-14T04:12:35.691Z,99.99
2017-07-14T04:13:36.962Z,99.99
2017-07-14T04:14:38.239Z,99.99
2017-07-14T04:15:39.548Z,99.99
2017-07-14T04:16:40.828Z,99.99
2017-07-14T04:17:42.164Z,99.99
2017-07-14T04:18:43.385Z,99.99
2017-07-14T04:19:44.636Z,99.99
2017-07-14T04:20:45.988Z,99.99
2017-07-14T04:21:47.221Z,99.99
2017-07-14T04:22:48.474Z,99.99
2017-07-14T04:23:49.710Z,99.99
2017-07-14T04:24:50.975Z,99.99
2017-07-14T04:25:52.322Z,99.99
2017-07-14T04:26:53.571Z,99.99
2017-07-14T04:27:54.834Z,99.99
2017-07-14T04:28:56.089Z,99.99
2017-07-14T04:29:57.380Z,99.99
2017-07-14T04:30:58.622Z,99.99
2017-07-14T04:31:59.866Z,99.99
2017-07-14T04:33:01.108Z,99.99
2017-07-14T04:34:02.342Z,99.99
2017-07-14T04:35:03.707Z,99.99
2017-07-14T04:36:04.919Z,99.99
2017-07-14T04:37:06.170Z,99.99
2017-07-14T04:38:07.412Z,99.99
2017-07-14T04:39:08.687Z,99.95
2017-07-14T04:40:10.067Z,98.09
2017-07-14T04:41:11.388Z,96.47
2017-07-14T04:42:12.634Z,94.31
2017-07-14T04:43:13.882Z,92.4
2017-07-14T04:44:15.131Z,90.44
2017-07-14T04:45:16.388Z,89.23
2017-07-14T04:46:17.701Z,86.12
2017-07-14T04:47:18.940Z,84.2
2017-07-14T04:48:20.181Z,82.86
2017-07-14T04:49:21.418Z,81.52
2017-07-14T04:50:22.667Z,80.56
2017-07-14T04:51:23.918Z,80.47
2017-07-14T04:52:25.265Z,80.27
2017-07-14T04:53:26.552Z,81.04
2017-07-14T04:54:27.844Z,82
2017-07-14T04:55:29.076Z,81.52
2017-07-14T04:56:30.323Z,82.29
2017-07-14T04:57:31.562Z,82.38
2017-07-14T04:58:32.840Z,82.92
2017-07-14T04:59:34.078Z,83.01
2017-07-14T05:00:35.396Z,82.73
2017-07-14T05:01:36.616Z,82.15
2017-07-14T05:02:37.861Z,82.43
2017-07-14T05:03:39.146Z,83.01
2017-07-14T05:04:40.363Z,83.01
2017-07-14T05:05:41.628Z,83.49
2017-07-14T05:06:42.884Z,83.39
2017-07-14T05:07:44.104Z,83.97
2017-07-14T05:08:45.357Z,83.59
2017-07-14T05:09:46.603Z,83.11
2017-07-14T05:10:47.974Z,82.82
2017-07-14T05:11:49.169Z,82.29
2017-07-14T05:12:50.454Z,80.6
2017-07-14T05:13:51.697Z,78.15
2017-07-14T05:14:52.936Z,75.89
2017-07-14T05:15:54.211Z,72.95
2017-07-14T05:16:55.455Z,70.72
2017-07-14T05:17:56.761Z,68.25
2017-07-14T05:18:58.002Z,65.59
2017-07-14T05:19:59.256Z,63.02
2017-07-14T05:21:00.502Z,62.22
2017-07-14T05:22:01.742Z,60.13
2017-07-14T05:23:02.982Z,57.01
2017-07-14T05:24:04.245Z,55.3
2017-07-14T05:25:05.541Z,53.91
2017-07-14T05:26:06.779Z,52
2017-07-14T05:27:08.024Z,49.22
2017-07-14T05:28:09.297Z,47.11
2017-07-14T05:29:10.587Z,45.78
2017-07-14T05:30:11.833Z,44.96
2017-07-14T05:31:13.102Z,43.31
2017-07-14T05:32:14.333Z,42.55
2017-07-14T05:33:15.586Z,42.24
2017-07-14T05:34:16.863Z,42.07
2017-07-14T05:35:18.180Z,41.31
2017-07-14T05:36:19.430Z,40.19
2017-07-14T05:37:20.676Z,38.75
2017-07-14T05:38:21.928Z,38.57
2017-07-14T05:39:23.178Z,37.82
2017-07-14T05:40:24.435Z,36.65
2017-07-14T05:41:25.665Z,36.96
2017-07-14T05:42:26.933Z,35.71
2017-07-14T05:43:28.280Z,35.61
2017-07-14T05:44:29.594Z,34.08
2017-07-14T05:45:30.843Z,33.9
2017-07-14T05:46:32.113Z,32.45
2017-07-14T05:47:33.354Z,31.77
2017-07-14T05:48:34.600Z,32.47
2017-07-14T05:49:35.872Z,31.31
2017-07-14T05:50:37.174Z,30.83
2017-07-14T05:51:38.424Z,30.24
2017-07-14T05:52:39.749Z,29.77
2017-07-14T05:53:41.004Z,30.16
2017-07-14T05:54:42.263Z,29
2017-07-14T05:55:43.574Z,28.42
2017-07-14T05:56:44.811Z,28.71
2017-07-14T05:57:46.079Z,28.43
2017-07-14T05:58:47.324Z,28.64
2017-07-14T05:59:48.602Z,28.15
2017-07-14T06:00:49.903Z,27.28
2017-07-14T06:01:51.177Z,28.45
2017-07-14T06:02:52.426Z,27.1
2017-07-14T06:03:53.677Z,26.99
2017-07-14T06:04:54.941Z,26.12
2017-07-14T06:05:56.181Z,26.03
2017-07-14T06:06:57.495Z,27.19
2017-07-14T06:07:58.769Z,25.93
2017-07-14T06:09:00.008Z,25.84
2017-07-14T06:10:01.277Z,26.15
2017-07-14T06:11:02.536Z,25.18
2017-07-14T06:12:03.785Z,25.1
2017-07-14T06:13:05.046Z,23.93
2017-07-14T06:14:06.299Z,23.44
2017-07-14T06:15:07.546Z,23.83
2017-07-14T06:16:08.833Z,22.67
2017-07-14T06:17:10.084Z,22.77
2017-07-14T06:18:11.356Z,22.47
2017-07-14T06:19:12.623Z,22.53
2017-07-14T06:20:13.916Z,24.38
2017-07-14T06:21:15.192Z,24.1
2017-07-14T06:22:16.428Z,23.72
2017-07-14T06:23:17.677Z,23.05
2017-07-14T06:24:18.925Z,22.58
2017-07-14T06:25:20.191Z,24.15
2017-07-14T06:26:21.444Z,23.09
2017-07-14T06:27:22.700Z,22.41
2017-07-14T06:28:23.981Z,21.54
2017-07-14T06:29:25.265Z,20.67
2017-07-14T06:30:26.502Z,19.6
2017-07-14T06:31:27.752Z,19.01
2017-07-14T06:32:29.020Z,19.21
2017-07-14T06:33:30.337Z,18.73
2017-07-14T06:34:31.685Z,18.23
2017-07-14T06:35:32.965Z,18.92
2017-07-14T06:36:34.359Z,18.33
2017-07-14T06:37:35.683Z,18.92
2017-07-14T06:38:36.970Z,18.43
2017-07-14T06:39:38.223Z,18.04
2017-07-14T06:40:39.501Z,18.94
2017-07-14T06:41:40.751Z,17.46
2017-07-14T06:42:42.091Z,17.57
2017-07-14T06:43:43.327Z,17.47
2017-07-14T06:44:44.607Z,17.37
2017-07-14T06:45:45.890Z,17.37
2017-07-14T06:46:47.123Z,17.46
2017-07-14T06:47:48.391Z,17.57
2017-07-14T06:48:49.634Z,17.37
2017-07-14T06:49:50.894Z,17.57
2017-07-14T06:50:52.225Z,17
2017-07-14T06:51:53.487Z,16.11
2017-07-14T06:52:54.755Z,16.02
2017-07-14T06:53:56.008Z,15.33
2017-07-14T06:54:57.267Z,14.53
2017-07-14T06:55:58.529Z,14.93
2017-07-14T06:56:59.869Z,15.42
2017-07-14T06:58:01.131Z,15.13
2017-07-14T06:59:02.399Z,15.23
2017-07-14T07:00:03.645Z,15.63
2017-07-14T07:01:04.919Z,15.05
2017-07-14T07:02:06.343Z,14.26
2017-07-14T07:03:07.604Z,14.07
2017-07-14T07:04:08.869Z,14.27
2017-07-14T07:05:10.112Z,13.87
2017-07-14T07:06:11.381Z,13.29
2017-07-14T07:07:12.654Z,13.49
2017-07-14T07:08:13.917Z,13.2
2017-07-14T07:09:15.187Z,13
2017-07-14T07:10:16.468Z,12.9
2017-07-14T07:11:17.744Z,13.79
2017-07-14T07:12:19.025Z,12.9
2017-07-14T07:13:20.410Z,12.3
2017-07-14T07:14:21.694Z,14.07
2017-07-14T07:15:22.962Z,12.69
2017-07-14T07:16:24.207Z,13.28
2017-07-14T07:17:25.503Z,13.47
2017-07-14T07:18:26.769Z,13.67
2017-07-14T07:19:28.098Z,14.17
2017-07-14T07:20:29.368Z,13.29
2017-07-14T07:21:30.609Z,12.89
2017-07-14T07:22:31.864Z,13.39
2017-07-14T07:23:33.125Z,13
2017-07-14T07:24:34.384Z,12.61
2017-07-14T07:25:35.638Z,11.73
2017-07-14T07:26:36.912Z,10.72
2017-07-14T07:27:38.195Z,11.9
2017-07-14T07:28:39.527Z,12.98
2017-07-14T07:29:40.788Z,13.48
2017-07-14T07:30:42.047Z,12.79
2017-07-14T07:31:43.303Z,12.8
2017-07-14T07:32:44.682Z,11.02
2017-07-14T07:33:45.974Z,10.73
2017-07-14T07:34:47.272Z,10.93
2017-07-14T07:35:48.523Z,10.93
2017-07-14T07:36:49.784Z,11.03
2017-07-14T07:37:51.163Z,10.53
2017-07-14T07:38:52.439Z,10.44
2017-07-14T07:39:53.768Z,9.84
2017-07-14T07:40:55.008Z,9.25
2017-07-14T07:41:56.320Z,10.25
2017-07-14T07:42:57.608Z,9.26
2017-07-14T07:43:58.877Z,9.36
2017-07-14T07:45:00.205Z,9.16
2017-07-14T07:46:01.461Z,8.66
2017-07-14T07:47:02.774Z,8.95
2017-07-14T07:48:04.070Z,9.16
2017-07-14T07:49:05.308Z,9.25
2017-07-14T07:50:06.639Z,8.75
2017-07-14T07:51:07.938Z,8.95
2017-07-14T07:52:09.199Z,8.95
2017-07-14T07:53:10.486Z,9.04
2017-07-14T07:54:11.757Z,8.15
2017-07-14T07:55:13.034Z,8.35
2017-07-14T07:56:14.295Z,7.75
2017-07-14T07:57:15.566Z,7.65
2017-07-14T07:58:16.834Z,7.26
2017-07-14T07:59:18.091Z,7.65
2017-07-14T08:00:19.355Z,7.06
2017-07-14T08:01:20.628Z,6.87
2017-07-14T08:02:21.888Z,6.67
2017-07-14T08:03:23.266Z,6.76
2017-07-14T08:04:24.408Z,7.26
2017-07-14T08:05:25.687Z,6.57
2017-07-14T08:06:26.936Z,7.45
2017-07-14T08:07:28.255Z,8.23
2017-07-14T08:08:29.680Z,7.83
2017-07-14T08:09:30.878Z,9.01
2017-07-14T08:10:32.130Z,9.59
2017-07-14T08:11:33.391Z,9.89
2017-07-14T08:12:34.664Z,9.2
2017-07-14T08:13:36.010Z,8.51
2017-07-14T08:14:37.434Z,8.52
2017-07-14T08:15:38.589Z,8.24
2017-07-14T08:16:39.858Z,8.64
2017-07-14T08:17:41.123Z,7.26
2017-07-14T08:18:42.400Z,7.95
2017-07-14T08:19:43.839Z,7.75
2017-07-14T08:20:45.034Z,8.03
2017-07-14T08:21:46.311Z,8.62
2017-07-14T08:22:47.572Z,9.31
2017-07-14T08:23:48.851Z,9.39
2017-07-14T08:24:50.193Z,10.36
2017-07-14T08:25:51.463Z,11.25
2017-07-14T08:26:52.750Z,11.33
2017-07-14T08:27:54.053Z,12.91
2017-07-14T08:28:55.360Z,12.8
2017-07-14T08:29:56.663Z,13.76
2017-07-14T08:30:57.974Z,14.53
2017-07-14T08:31:59.269Z,14.91
2017-07-14T08:33:00.497Z,15.59
2017-07-14T08:34:01.762Z,14.9
2017-07-14T08:35:03.022Z,15.5
2017-07-14T08:36:04.349Z,15.01
2017-07-14T08:37:05.699Z,15.41
2017-07-14T08:38:06.947Z,16.18
2017-07-14T08:39:08.214Z,15.88
2017-07-14T08:40:09.489Z,16.08
2017-07-14T08:41:10.723Z,15.5
2017-07-14T08:42:12.015Z,15.22
2017-07-14T08:43:13.304Z,14.26
2017-07-14T08:44:14.543Z,12.7
2017-07-14T08:45:15.804Z,11.92
2017-07-14T08:46:17.050Z,12.13
2017-07-14T08:47:18.338Z,11.65
2017-07-14T08:48:19.599Z,11.17
2017-07-14T08:49:20.858Z,11.28
2017-07-14T08:50:22.136Z,10.89
2017-07-14T08:51:23.396Z,9.81
2017-07-14T08:52:24.653Z,9.42
2017-07-14T08:53:25.910Z,9.23
2017-07-14T08:54:27.173Z,8.54
2017-07-14T08:55:28.422Z,7.05
2017-07-14T08:56:29.753Z,7.75
2017-07-14T08:57:31.007Z,7.56
2017-07-14T08:58:32.281Z,7.76
2017-07-14T08:59:33.557Z,7.57
2017-07-14T09:00:34.836Z,7.07
2017-07-14T09:01:36.257Z,7.48
2017-07-14T09:02:37.520Z,7.26
2017-07-14T09:03:38.777Z,7.25
2017-07-14T09:04:40.074Z,8.63
2017-07-14T09:05:41.325Z,9.3
2017-07-14T09:06:42.610Z,10.27
2017-07-14T09:07:43.894Z,11.82
2017-07-14T09:08:45.304Z,12.49
2017-07-14T09:09:46.443Z,13.96
2017-07-14T09:10:47.734Z,14.15
2017-07-14T09:11:49.009Z,14.37
2017-07-14T09:12:50.278Z,13.4
2017-07-14T09:13:51.557Z,12.52
2017-07-14T09:14:52.831Z,11.75
2017-07-14T09:15:54.061Z,11.38
2017-07-14T09:16:55.322Z,10.21
2017-07-14T09:17:56.612Z,9.73
2017-07-14T09:18:58.008Z,8.05
2017-07-14T09:19:59.272Z,7.76
2017-07-14T09:21:00.513Z,7.67
2017-07-14T09:22:01.783Z,7.26
2017-07-14T09:23:03.050Z,7.26
2017-07-14T09:24:04.333Z,7.46
2017-07-14T09:25:05.617Z,7.26
2017-07-14T09:26:06.902Z,7.75
2017-07-14T09:27:08.154Z,8.03
2017-07-14T09:28:09.423Z,8.33
2017-07-14T09:29:10.692Z,8.31
2017-07-14T09:30:11.959Z,8.9
2017-07-14T09:31:13.254Z,10.65
2017-07-14T09:32:14.548Z,11.05
2017-07-14T09:33:15.835Z,11.44
2017-07-14T09:34:17.065Z,10.86
2017-07-14T09:35:18.353Z,10.09
2017-07-14T09:36:19.607Z,10.3
2017-07-14T09:37:20.953Z,8.72
2017-07-14T09:38:22.201Z,9.21
2017-07-14T09:39:23.481Z,8.91
2017-07-14T09:40:24.726Z,9.88
2017-07-14T09:41:26.007Z,10.47
2017-07-14T09:42:27.249Z,10.95
2017-07-14T09:43:28.511Z,10.94
2017-07-14T09:44:29.796Z,11.52
2017-07-14T09:45:31.083Z,11.62
2017-07-14T09:46:32.356Z,12.3
2017-07-14T09:47:33.620Z,12.7
2017-07-14T09:48:34.928Z,12.6
2017-07-14T09:49:36.177Z,12.8
2017-07-14T09:50:37.542Z,11.91
2017-07-14T09:51:38.822Z,12.3
2017-07-14T09:52:40.057Z,12.71
2017-07-14T09:53:41.320Z,11.74
2017-07-14T09:54:42.610Z,11.35
2017-07-14T09:55:43.907Z,10.97
2017-07-14T09:56:45.135Z,9.89
2017-07-14T09:57:46.407Z,9.7
2017-07-14T09:58:47.689Z,10.5
2017-07-14T09:59:48.923Z,10.11
2017-07-14T10:00:50.236Z,8.83
2017-07-14T10:01:51.635Z,8.44
2017-07-14T10:02:52.820Z,8.33
2017-07-14T10:03:54.051Z,8.32
2017-07-14T10:04:55.314Z,9.59
2017-07-14T10:05:56.570Z,9.68
2017-07-14T10:06:57.841Z,10.36
2017-07-14T10:07:59.126Z,11.82
2017-07-14T10:09:00.387Z,12.3
2017-07-14T10:10:01.660Z,12.2
2017-07-14T10:11:02.913Z,12.49
2017-07-14T10:12:04.172Z,13.19
2017-07-14T10:13:05.429Z,12.81
2017-07-14T10:14:06.791Z,11.53
2017-07-14T10:15:08.109Z,11.33
2017-07-14T10:16:09.404Z,11.23
2017-07-14T10:17:10.651Z,10.93
2017-07-14T10:18:11.933Z,11.99
2017-07-14T10:19:13.235Z,13.34
2017-07-14T10:20:14.659Z,14.31
2017-07-14T10:21:15.913Z,15.58
2017-07-14T10:22:17.166Z,15.39
2017-07-14T10:23:18.467Z,15.69
2017-07-14T10:24:19.736Z,15.39
2017-07-14T10:25:20.995Z,15.88
2017-07-14T10:26:22.278Z,15.67
2017-07-14T10:27:23.557Z,15.67
2017-07-14T10:28:24.808Z,16.06
2017-07-14T10:29:26.078Z,16.14
2017-07-14T10:30:27.324Z,17.21
2017-07-14T10:31:28.585Z,17.88
2017-07-14T10:32:29.846Z,17.49
2017-07-14T10:33:31.111Z,18.08
2017-07-14T10:34:32.361Z,18.26
2017-07-14T10:35:33.598Z,19.14
2017-07-14T10:36:34.884Z,18.85
2017-07-14T10:37:36.258Z,19.82
2017-07-14T10:38:37.562Z,19.71
2017-07-14T10:39:38.777Z,19.52
2017-07-14T10:40:40.025Z,19.71
2017-07-14T10:41:41.294Z,20.51
2017-07-14T10:42:42.579Z,19.43
2017-07-14T10:43:43.911Z,19.03
2017-07-14T10:44:45.156Z,19.9
2017-07-14T10:45:46.428Z,20.39
2017-07-14T10:46:47.685Z,21.74
2017-07-14T10:47:48.942Z,20.77
2017-07-14T10:48:50.251Z,19.99
2017-07-14T10:49:51.510Z,20.57
2017-07-14T10:50:52.831Z,20.27
2017-07-14T10:51:54.095Z,20.47
2017-07-14T10:52:55.333Z,21.94
2017-07-14T10:53:56.606Z,21.55
2017-07-14T10:54:57.868Z,22.42
2017-07-14T10:55:59.136Z,21.45
2017-07-14T10:57:00.389Z,22.34
2017-07-14T10:58:01.691Z,22.24
2017-07-14T10:59:02.919Z,22.03
2017-07-14T11:00:04.184Z,21.74
2017-07-14T11:01:05.450Z,21.25
2017-07-14T11:02:06.708Z,22.12
2017-07-14T11:03:08.012Z,21.64
2017-07-14T11:04:09.262Z,22.03
2017-07-14T11:05:10.554Z,21.92
2017-07-14T11:06:11.778Z,21.83
2017-07-14T11:07:13.044Z,22.51
2017-07-14T11:08:14.417Z,22.41
2017-07-14T11:09:15.662Z,22.6
2017-07-14T11:10:16.920Z,22.89
2017-07-14T11:11:18.172Z,22.79
2017-07-14T11:12:19.415Z,22.99
2017-07-14T11:13:20.704Z,23.68
2017-07-14T11:14:21.965Z,23.96
2017-07-14T11:15:23.216Z,24.26
2017-07-14T11:16:24.485Z,23.86
2017-07-14T11:17:25.731Z,24.26
2017-07-14T11:18:27.006Z,23.56
2017-07-14T11:19:28.343Z,24.13
2017-07-14T11:20:29.619Z,24.91
2017-07-14T11:21:30.869Z,25.1
2017-07-14T11:22:32.197Z,24.12
2017-07-14T11:23:33.417Z,24.8
2017-07-14T11:24:34.718Z,24.91
2017-07-14T11:25:36.034Z,23.73
2017-07-14T11:26:37.278Z,24.04
2017-07-14T11:27:38.564Z,24.71
2017-07-14T11:28:39.814Z,23.73
2017-07-14T11:29:41.062Z,23.83
2017-07-14T11:30:42.315Z,23.83
2017-07-14T11:31:43.559Z,22.28
2017-07-14T11:32:44.835Z,23.54
2017-07-14T11:33:46.220Z,23.73
2017-07-14T11:34:47.461Z,23.73
2017-07-14T11:35:48.703Z,22.94
2017-07-14T11:36:49.987Z,24.01
2017-07-14T11:37:51.233Z,23.8
2017-07-14T11:38:52.521Z,25.36
2017-07-14T11:39:53.799Z,25.35
2017-07-14T11:40:55.031Z,25.64
2017-07-14T11:41:56.283Z,26.22
2017-07-14T11:42:57.535Z,25.74
2017-07-14T11:43:58.802Z,26.12
2017-07-14T11:45:00.070Z,24.96
2017-07-14T11:46:01.323Z,25.46
2017-07-14T11:47:02.575Z,25.25
2017-07-14T11:48:03.846Z,24.18
2017-07-14T11:49:05.095Z,24.85
2017-07-14T11:50:06.423Z,25.04
2017-07-14T11:51:07.675Z,24.85
2017-07-14T11:52:08.990Z,24.95
2017-07-14T11:53:10.243Z,25.73
2017-07-14T11:54:11.637Z,25.81
2017-07-14T11:55:12.869Z,26
2017-07-14T11:56:14.174Z,26.1
2017-07-14T11:57:15.409Z,25.9
2017-07-14T11:58:16.802Z,26.09
2017-07-14T11:59:18.047Z,26.57
2017-07-14T12:00:19.288Z,26.38
2017-07-14T12:01:20.581Z,27.06
2017-07-14T12:02:21.818Z,26.85
2017-07-14T12:03:23.077Z,26.76
2017-07-14T12:04:24.355Z,27.06
2017-07-14T12:05:25.666Z,27.73
2017-07-14T12:06:26.914Z,27.73
2017-07-14T12:07:28.157Z,28.13
2017-07-14T12:08:29.417Z,28.03
2017-07-14T12:09:30.697Z,28.3
2017-07-14T12:10:32.006Z,29.1
2017-07-14T12:11:33.290Z,28.9
2017-07-14T12:12:34.559Z,28.89
2017-07-14T12:13:35.779Z,29.95
2017-07-14T12:14:37.053Z,29.37
2017-07-14T12:15:38.303Z,29.37
2017-07-14T12:16:39.567Z,28.98
2017-07-14T12:17:40.814Z,29.97
2017-07-14T12:18:42.090Z,30.35
2017-07-14T12:19:43.350Z,29.69
2017-07-14T12:20:44.615Z,29.98
2017-07-14T12:21:46.084Z,29.3
2017-07-14T12:22:47.333Z,29.88
2017-07-14T12:23:48.582Z,29.69
2017-07-14T12:24:49.843Z,29.5
2017-07-14T12:25:51.091Z,29.19
2017-07-14T12:26:52.433Z,29.87
2017-07-14T12:27:53.862Z,30.16
2017-07-14T12:28:55.117Z,29.97
2017-07-14T12:29:56.371Z,30.45
2017-07-14T12:30:57.627Z,30.16
2017-07-14T12:31:58.906Z,31.04
2017-07-14T12:33:00.226Z,30.45
2017-07-14T12:34:01.488Z,31.41
2017-07-14T12:35:02.746Z,32.76
2017-07-14T12:36:04.011Z,35.57
2017-07-14T12:37:05.282Z,35.28
2017-07-14T12:38:06.542Z,37.59
2017-07-14T12:39:07.780Z,37.69
2017-07-14T12:40:09.031Z,37.67
2017-07-14T12:41:10.409Z,37.75
2017-07-14T12:42:11.700Z,39.01
2017-07-14T12:43:12.954Z,39.11
2017-07-14T12:44:14.256Z,39.86
2017-07-14T12:45:15.513Z,39.28
2017-07-14T12:46:16.932Z,39.09
2017-07-14T12:47:18.193Z,39.57
2017-07-14T12:48:19.449Z,39.28
2017-07-14T12:49:20.740Z,39.16
2017-07-14T12:50:22.000Z,39.36
2017-07-14T12:51:23.335Z,38.97
2017-07-14T12:52:24.675Z,39.09
2017-07-14T12:53:25.937Z,38.29
2017-07-14T12:54:27.200Z,38.39
2017-07-14T12:55:28.458Z,38.5
2017-07-14T12:56:29.729Z,38.6
2017-07-14T12:57:30.973Z,37.82
2017-07-14T12:58:32.236Z,37.92
2017-07-14T12:59:33.524Z,38
2017-07-14T13:00:34.777Z,38.41
2017-07-14T13:01:36.041Z,38.6
2017-07-14T13:02:37.297Z,37.94
2017-07-14T13:03:38.547Z,37.94
2017-07-14T13:04:39.798Z,36.8
2017-07-14T13:05:41.033Z,36.9
2017-07-14T13:06:42.300Z,36.51
2017-07-14T13:07:43.545Z,35.73
2017-07-14T13:08:44.827Z,35.73
2017-07-14T13:09:46.182Z,36.02
2017-07-14T13:10:47.424Z,35.75
2017-07-14T13:11:48.685Z,34.49
2017-07-14T13:12:49.971Z,34.59
2017-07-14T13:13:51.199Z,34.09
2017-07-14T13:14:52.448Z,34.78